Time;durP1;ratioP1;P1;durP2;ratioP2;P2;SDS_P1;SDS_P2;PMS_P1;PMS_P2;Temp;Humidity;BMP_temperature;BMP_pressure;BME280_temperature;BME280_humidity;BME280_pressure;Samples;Min_cycle;Max_cycle;Signal;HPM_P1;HPM_P2
2022/05/28 00:00:33;;;;;;;3.50;1.77;;;;;;;6.74;100.00;93462.19;2106612;28;20093;-81
2022/05/28 00:01:34;;;;;;;4.18;2.20;;;;;;;6.68;100.00;93463.72;2098509;28;20119;-81
2022/05/28 00:02:36;;;;;;;2.10;1.75;;;;;;;6.74;100.00;93466.72;2089925;28;20122;-81
2022/05/28 00:03:38;;;;;;;2.00;1.48;;;;;;;6.69;100.00;93459.16;2106882;28;20020;-81
2022/05/28 00:04:39;;;;;;;1.90;1.70;;;;;;;6.68;100.00;93457.66;2106697;28;20028;-81
2022/05/28 00:05:41;;;;;;;2.53;1.98;;;;;;;6.64;100.00;93456.91;2089983;28;20027;-81
2022/05/28 00:06:42;;;;;;;4.25;1.70;;;;;;;6.66;100.00;93459.91;2098396;28;20473;-81
2022/05/28 00:07:45;;;;;;;2.75;1.80;;;;;;;6.77;100.00;93455.34;2100614;28;20046;-82
2022/05/28 00:08:47;;;;;;;1.73;1.58;;;;;;;6.67;100.00;93458.78;2115228;28;20428;-81
2022/05/28 00:09:48;;;;;;;1.75;1.65;;;;;;;6.68;100.00;93449.69;2115060;28;20030;-82
2022/05/28 00:10:49;;;;;;;2.50;1.60;;;;;;;6.57;100.00;93453.09;2106580;27;20035;-81
2022/05/28 00:11:49;;;;;;;2.53;1.75;;;;;;;6.62;100.00;93456.50;2102278;28;20028;-81
2022/05/28 00:12:51;;;;;;;2.33;2.13;;;;;;;6.60;100.00;93451.59;2114664;28;20016;-82
2022/05/28 00:13:53;;;;;;;2.30;1.80;;;;;;;6.54;100.00;93455.75;2115013;28;20023;-81
2022/05/28 00:14:55;;;;;;;2.25;1.98;;;;;;;6.59;100.00;93452.72;2111503;28;20030;-81
2022/05/28 00:15:56;;;;;;;2.10;1.80;;;;;;;6.69;100.00;93445.88;2114834;28;20027;-81
2022/05/28 00:16:58;;;;;;;2.35;1.55;;;;;;;6.57;100.00;93453.09;2106526;28;20032;-82
2022/05/28 00:17:59;;;;;;;2.13;1.92;;;;;;;6.59;100.00;93454.63;2115106;28;20049;-81
2022/05/28 00:19:00;;;;;;;2.35;2.00;;;;;;;6.62;100.00;93453.84;2106621;28;20028;-82
2022/05/28 00:20:02;;;;;;;2.33;1.80;;;;;;;6.53;100.00;93447.03;2098398;28;20024;-81
2022/05/28 00:21:04;;;;;;;2.67;1.88;;;;;;;6.51;100.00;93451.22;2114827;28;20464;-82
2022/05/28 00:22:05;;;;;;;2.17;1.92;;;;;;;6.49;100.00;93443.59;2106390;28;20037;-82
2022/05/28 00:23:06;;;;;;;4.18;2.20;;;;;;;6.57;100.00;93445.13;2100055;27;20082;-82
2022/05/28 00:24:07;;;;;;;3.17;2.20;;;;;;;6.48;100.00;93438.69;2114568;28;20071;-82
2022/05/28 00:25:11;;;;;;;2.72;2.53;;;;;;;6.53;100.00;93441.72;2106263;28;20542;-82
2022/05/28 00:26:14;;;;;;;2.42;2.10;;;;;;;6.44;100.00;93445.91;2115610;27;20027;-82
2022/05/28 00:27:16;;;;;;;2.72;1.80;;;;;;;6.43;100.00;93447.81;2123418;27;20383;-82
2022/05/28 00:28:21;;;;;;;2.38;2.17;;;;;;;6.32;100.00;93444.38;2115003;27;20533;-81
2022/05/28 00:29:25;;;;;;;2.05;1.85;;;;;;;6.41;100.00;93442.13;2112300;27;20028;-82
2022/05/28 00:30:26;;;;;;;4.35;2.13;;;;;;;6.45;100.00;93437.56;2110152;27;20496;-82
2022/05/28 00:31:27;;;;;;;2.70;2.20;;;;;;;6.48;100.00;93444.75;2114242;27;20019;-81
2022/05/28 00:32:29;;;;;;;2.78;1.85;;;;;;;6.49;100.00;93440.97;2122498;27;20050;-81
2022/05/28 00:33:30;;;;;;;2.65;2.45;;;;;;;6.57;100.00;93433.75;2107702;27;20269;-81
2022/05/28 00:34:31;;;;;;;2.65;2.03;;;;;;;6.65;100.00;93439.81;2106245;28;20408;-82
2022/05/28 00:35:32;;;;;;;1.98;1.88;;;;;;;6.63;100.00;93442.06;2106537;28;20024;-81
2022/05/28 00:36:33;;;;;;;2.30;2.10;;;;;;;6.49;100.00;93440.19;2101996;28;20025;-82
2022/05/28 00:37:35;;;;;;;2.03;1.92;;;;;;;6.61;100.00;93439.81;2102166;28;20029;-82
2022/05/28 00:38:37;;;;;;;2.35;2.00;;;;;;;6.67;100.00;93437.50;2113667;28;20388;-81
2022/05/28 00:39:38;;;;;;;4.05;2.13;;;;;;;6.65;100.00;93429.19;2107653;28;20055;-82
2022/05/28 00:40:39;;;;;;;3.70;2.38;;;;;;;6.63;100.00;93439.41;2101830;28;20016;-81
2022/05/28 00:41:40;;;;;;;2.83;2.50;;;;;;;6.77;100.00;93436.75;2110636;28;20070;-81
2022/05/28 00:42:42;;;;;;;3.22;2.30;;;;;;;6.74;100.00;93440.16;2110470;28;20048;-81
2022/05/28 00:43:45;;;;;;;3.50;2.30;;;;;;;6.69;100.00;93433.34;2110370;28;20077;-82
2022/05/28 00:44:46;;;;;;;2.40;2.20;;;;;;;6.79;100.00;93431.81;2100835;28;20592;-82
2022/05/28 00:45:54;;;;;;;2.92;2.55;;;;;;;6.78;100.00;93430.28;2104507;28;20028;-82
2022/05/28 00:46:59;;;;;;;4.43;2.03;;;;;;;6.67;100.00;93433.00;2115897;27;20024;-81
2022/05/28 00:48:03;;;;;;;2.70;2.30;;;;;;;6.79;100.00;93445.84;2107263;27;20424;-81
2022/05/28 00:49:08;;;;;;;2.67;2.40;;;;;;;6.73;100.00;93436.00;2106977;27;20145;-82
2022/05/28 00:50:10;;;;;;;3.05;2.22;;;;;;;6.79;100.00;93435.22;2107478;27;20077;-81
2022/05/28 00:51:15;;;;;;;2.65;2.45;;;;;;;6.71;100.00;93430.31;2114968;28;20024;-81
2022/05/28 00:52:18;;;;;;;2.33;2.15;;;;;;;6.80;100.00;93435.97;2107550;28;20024;-81
2022/05/28 00:53:20;;;;;;;2.60;2.22;;;;;;;6.80;100.00;93439.41;2122486;27;20594;-81
2022/05/28 00:54:21;;;;;;;2.30;2.10;;;;;;;6.80;100.00;93426.13;2114656;28;20058;-82
2022/05/28 00:55:23;;;;;;;2.28;2.08;;;;;;;6.80;100.00;93434.09;2106367;28;20024;-82
2022/05/28 00:56:26;;;;;;;4.22;2.35;;;;;;;6.77;100.00;93436.75;2114993;27;20023;-81
2022/05/28 00:57:27;;;;;;;2.53;2.17;;;;;;;6.88;100.00;93440.13;2114865;28;20019;-82
2022/05/28 00:58:30;;;;;;;2.53;2.20;;;;;;;6.77;100.00;93434.09;2114753;27;20015;-81
2022/05/28 00:59:31;;;;;;;2.30;1.92;;;;;;;6.82;100.00;93431.06;2123439;27;20023;-82
2022/05/28 01:00:34;;;;;;;2.60;2.40;;;;;;;6.84;100.00;93431.41;2131588;27;20105;-81
2022/05/28 01:01:38;;;;;;;4.13;2.22;;;;;;;6.87;100.00;93432.56;2123397;27;20047;-82
2022/05/28 01:02:57;;;;;;;1.88;1.77;;;;;;;6.88;100.00;93434.81;2114495;28;20026;-82
2022/05/28 01:04:24;;;;;;;2.50;2.30;;;;;;;6.91;100.00;93434.06;2108884;28;20069;-82
2022/05/28 01:05:36;;;;;;;2.78;2.58;;;;;;;7.07;100.00;93433.63;2114883;28;20088;-82
2022/05/28 01:06:58;;;;;;;2.17;1.98;;;;;;;7.03;100.00;93433.66;2114466;28;20112;-82
2022/05/28 01:08:24;;;;;;;3.10;2.00;;;;;;;6.95;100.00;93426.84;2108851;28;20081;-81
2022/05/28 01:09:49;;;;;;;3.47;1.92;;;;;;;7.06;100.00;93434.75;2101262;28;20469;-82
2022/05/28 01:11:09;;;;;;;2.22;2.03;;;;;;;7.03;100.00;93432.91;2095852;28;20094;-81
2022/05/28 01:12:13;;;;;;;;;;;;;;;7.06;100.00;93429.44;2098651;27;20466;-81
2022/05/28 01:13:40;;;;;;;2.58;1.90;;;;;;;7.12;100.00;93427.16;2107031;27;19916;-81
2022/05/28 01:14:53;;;;;;;2.42;1.88;;;;;;;7.14;100.00;93424.88;2121916;27;20034;-82
2022/05/28 01:16:03;;;;;;;2.55;2.03;;;;;;;7.15;100.00;93429.78;2112345;28;20028;-81
2022/05/28 01:17:10;;;;;;;;;;;;;;;7.25;100.00;93420.28;2099495;28;20032;-82
2022/05/28 01:18:33;;;;;;;1.95;1.80;;;;;;;7.13;100.00;93431.34;2099442;28;19914;-82
2022/05/28 01:19:46;;;;;;;2.00;1.90;;;;;;;7.15;100.00;93423.72;2110715;27;20051;-82
2022/05/28 01:20:54;;;;;;;2.05;1.90;;;;;;;7.24;100.00;93421.41;2117918;27;20559;-81
2022/05/28 01:22:20;;;;;;;1.95;1.73;;;;;;;7.29;100.00;93418.38;2115371;27;20023;-82
2022/05/28 01:24:04;;;;;;;4.95;2.30;;;;;;;7.38;100.00;93418.69;2114272;27;20385;-81
2022/05/28 01:25:42;;;;;;;3.55;1.73;;;;;;;7.43;100.00;93415.63;2111940;28;20031;-82
2022/05/28 01:27:07;;;;;;;2.00;1.77;;;;;;;7.47;100.00;93419.03;2112107;28;20028;-81
2022/05/28 01:28:13;;;;;;;2.63;1.80;;;;;;;7.52;100.00;93418.63;2105799;28;20032;-81
2022/05/28 01:29:17;;;;;;;2.92;1.90;;;;;;;7.49;100.00;93415.97;2090785;28;20036;-82
2022/05/28 01:30:19;;;;;;;2.88;1.88;;;;;;;7.44;100.00;93411.06;2106421;28;20073;-81
2022/05/28 01:31:22;;;;;;;1.92;1.80;;;;;;;7.46;100.00;93412.22;2105743;28;20477;-81
2022/05/28 01:32:26;;;;;;;2.67;1.90;;;;;;;7.46;100.00;93406.88;2105136;28;20041;-82
2022/05/28 01:33:30;;;;;;;2.97;2.10;;;;;;;7.47;100.00;93410.31;2092642;28;20056;-81
2022/05/28 01:34:32;;;;;;;2.33;1.95;;;;;;;7.48;100.00;93411.81;2090119;28;20021;-81
2022/05/28 01:35:35;;;;;;;3.22;2.35;;;;;;;7.52;100.00;93413.31;2107168;27;20149;-81
2022/05/28 01:36:37;;;;;;;2.88;2.20;;;;;;;7.54;100.00;93410.25;2122659;27;20030;-82
2022/05/28 01:37:39;;;;;;;2.25;2.13;;;;;;;7.46;100.00;93398.91;2114834;27;20030;-81
2022/05/28 01:38:43;;;;;;;2.40;2.20;;;;;;;7.51;100.00;93400.41;2116620;27;20090;-81
2022/05/28 01:39:47;;;;;;;2.88;2.47;;;;;;;7.51;100.00;93401.16;2106223;28;20024;-81
2022/05/28 01:40:50;;;;;;;2.60;2.40;;;;;;;7.58;100.00;93395.03;2097714;28;20028;-82
2022/05/28 01:41:53;;;;;;;3.53;2.00;;;;;;;7.73;100.00;93401.03;2104333;27;20023;-82
2022/05/28 01:43:01;;;;;;;3.65;2.10;;;;;;;7.82;100.00;93393.38;2114422;28;20024;-81
2022/05/28 01:44:04;;;;;;;4.93;2.30;;;;;;;7.88;100.00;93393.69;2100353;27;20497;-81
2022/05/28 01:45:07;;;;;;;2.33;2.10;;;;;;;7.98;100.00;93396.28;2114941;27;20118;-81
2022/05/28 01:46:12;;;;;;;2.90;2.30;;;;;;;7.99;100.00;93400.47;2114475;28;20019;-81
2022/05/28 01:47:15;;;;;;;4.05;2.17;;;;;;;7.89;100.00;93393.31;2104909;28;20750;-81
2022/05/28 01:48:19;;;;;;;3.17;2.25;;;;;;;7.95;100.00;93402.41;2102040;28;20708;-82
2022/05/28 01:49:23;;;;;;;2.30;2.10;;;;;;;7.93;100.00;93396.69;2105410;28;20052;-81
2022/05/28 01:50:26;;;;;;;2.85;2.30;;;;;;;7.94;100.00;93395.53;2097911;28;20359;-81
2022/05/28 01:51:34;;;;;;;4.40;2.53;;;;;;;7.99;100.00;93389.81;2098074;28;20028;-81
2022/05/28 01:52:36;;;;;;;3.33;2.75;;;;;;;8.09;100.00;93393.53;2098482;28;20416;-81
2022/05/28 01:55:01;;;;;;;2.53;2.17;;;;;;;8.16;100.00;93393.47;2108974;28;20031;-82
2022/05/28 01:56:04;;;;;;;3.88;3.47;;;;;;;8.49;100.00;93396.66;2105578;28;20051;-81
2022/05/28 01:57:05;;;;;;;6.25;4.25;;;;;;;8.74;100.00;93381.19;2097937;28;20028;-81
2022/05/28 01:58:06;;;;;;;4.60;4.00;;;;;;;8.76;100.00;93386.09;2105753;28;20074;-81
2022/05/28 01:59:11;;;;;;;6.57;4.47;;;;;;;8.78;100.00;93384.56;2105767;28;20020;-81
2022/05/28 02:00:12;;;;;;;8.10;4.63;;;;;;;8.85;100.00;93382.97;2106176;28;20027;-81
2022/05/28 02:01:13;;;;;;;7.85;4.70;;;;;;;8.94;100.00;93381.34;2097354;28;20027;-81
2022/05/28 02:02:16;;;;;;;4.50;4.10;;;;;;;9.03;100.00;93386.94;2089234;28;20497;-81
2022/05/28 02:03:17;;;;;;;6.30;4.72;;;;;;;9.00;100.00;93379.75;2090043;28;20036;-81
2022/05/28 02:04:18;;;;;;;5.20;4.28;;;;;;;9.02;100.00;93379.34;2089000;28;20243;-82
2022/05/28 02:05:19;;;;;;;7.30;4.78;;;;;;;9.05;100.00;93378.56;2097532;28;20059;-81
2022/05/28 02:06:20;;;;;;;4.97;4.22;;;;;;;9.06;100.00;93372.06;2105604;28;20069;-81
2022/05/28 02:07:21;;;;;;;5.05;3.97;;;;;;;9.12;100.00;93375.03;2097388;28;20016;-81
2022/05/28 02:08:24;;;;;;;7.43;4.70;;;;;;;9.07;100.00;93377.00;2089201;28;20730;-82
2022/05/28 02:09:31;;;;;;;6.15;4.47;;;;;;;9.10;100.00;93370.13;2101137;28;20030;-80
2022/05/28 02:10:34;;;;;;;5.13;4.63;;;;;;;9.39;100.00;93378.50;2090916;28;20032;-81
2022/05/28 02:13:33;;;;;;;;;;;;;;;9.42;100.00;93366.28;2148522;27;20517;-81
2022/05/28 02:14:42;;;;;;;10.05;4.63;;;;;;;9.45;100.00;93362.81;2148100;27;19917;-81
2022/05/28 02:15:48;;;;;;;8.50;4.90;;;;;;;9.37;100.00;93367.50;2130031;27;20014;-81
2022/05/28 02:17:01;;;;;;;7.97;5.40;;;;;;;9.49;100.00;93374.22;2114375;27;20024;-81
2022/05/28 02:18:11;;;;;;;12.02;5.55;;;;;;;9.46;100.00;93375.00;2116435;27;20054;-81
2022/05/28 02:19:17;;;;;;;;;;;;;;;9.42;100.00;93367.03;2123361;27;20050;-82
2022/05/28 02:20:37;;;;;;;8.23;5.07;;;;;;;9.41;100.00;93370.88;2122910;27;20016;-81
2022/05/28 02:21:43;;;;;;;6.70;4.80;;;;;;;9.37;100.00;93356.06;2132738;27;20033;-81
2022/05/28 02:22:57;;;;;;;5.85;4.47;;;;;;;9.30;100.00;93365.66;2130676;27;20011;-81
2022/05/28 02:24:05;;;;;;;7.47;5.07;;;;;;;9.33;100.00;93366.78;2123344;27;20050;-82
2022/05/28 02:25:11;;;;;;;9.32;5.30;;;;;;;9.28;100.00;93367.22;2123317;27;20034;-81
2022/05/28 02:26:19;;;;;;;9.82;5.35;;;;;;;9.34;100.00;93360.28;2129907;27;20038;-81
2022/05/28 02:27:22;;;;;;;9.10;6.45;;;;;;;9.39;100.00;93369.75;2122422;27;20027;-81
2022/05/28 02:28:24;;;;;;;9.55;5.28;;;;;;;9.28;100.00;93365.31;2113339;28;20023;-81
2022/05/28 02:29:25;;;;;;;8.15;5.18;;;;;;;9.25;100.00;93360.78;2113143;27;20832;-81
2022/05/28 02:30:26;;;;;;;8.80;5.68;;;;;;;9.19;100.00;93357.06;2112947;28;20380;-82
2022/05/28 02:31:30;;;;;;;6.55;5.25;;;;;;;9.18;100.00;93357.47;2104391;28;20440;-82
2022/05/28 02:32:31;;;;;;;7.45;5.45;;;;;;;9.16;100.00;93357.84;2113598;27;20523;-81
2022/05/28 02:33:33;;;;;;;11.32;5.07;;;;;;;9.20;100.00;93357.81;2127846;27;20023;-81
2022/05/28 02:34:33;;;;;;;5.80;5.13;;;;;;;9.24;100.00;93355.84;2123241;27;20639;-82
2022/05/28 02:35:34;;;;;;;7.55;4.93;;;;;;;9.21;100.00;93356.63;2121306;28;20027;-82
2022/05/28 02:36:37;;;;;;;9.43;5.32;;;;;;;9.29;100.00;93356.16;2112780;28;20020;-82
2022/05/28 02:37:39;;;;;;;7.60;4.72;;;;;;;9.29;100.00;93352.72;2105144;28;20110;-82
2022/05/28 02:38:41;;;;;;;8.93;5.35;;;;;;;9.29;100.00;93353.47;2110523;28;20034;-82
2022/05/28 02:39:42;;;;;;;6.00;5.10;;;;;;;9.26;100.00;93350.84;2113189;27;20028;-81
2022/05/28 02:40:43;;;;;;;9.38;5.32;;;;;;;9.23;100.00;93351.69;2121015;28;20028;-81
2022/05/28 02:41:44;;;;;;;5.07;4.68;;;;;;;9.20;100.00;93352.47;2104522;28;20473;-81
2022/05/28 02:42:45;;;;;;;5.75;4.88;;;;;;;9.27;100.00;93347.06;2112806;28;20083;-81
2022/05/28 02:43:46;;;;;;;5.70;4.97;;;;;;;9.20;100.00;93355.88;2121375;28;20042;-82
2022/05/28 02:44:47;;;;;;;5.88;4.47;;;;;;;9.16;100.00;93349.09;2112787;28;20574;-81
2022/05/28 02:45:49;;;;;;;7.18;5.32;;;;;;;9.07;100.00;93346.91;2104433;28;20024;-82
2022/05/28 02:46:49;;;;;;;8.52;5.20;;;;;;;9.06;100.00;93348.06;2104517;28;20024;-82
2022/05/28 02:47:50;;;;;;;7.85;5.40;;;;;;;9.01;100.00;93340.53;2112844;28;20027;-82
2022/05/28 02:48:51;;;;;;;6.80;4.90;;;;;;;9.03;100.00;93354.19;2104205;28;20020;-81
2022/05/28 02:49:55;;;;;;;7.72;4.68;;;;;;;8.97;100.00;93345.88;2104370;28;20066;-80
2022/05/28 02:51:09;;;;;;;9.02;4.82;;;;;;;8.91;100.00;93347.50;2104688;28;20084;-82
2022/05/28 02:52:10;;;;;;;5.95;4.72;;;;;;;8.89;100.00;93343.72;2116177;27;20392;-81
2022/05/28 02:53:13;;;;;;;5.32;4.75;;;;;;;8.88;100.00;93350.19;2121171;28;20023;-82
2022/05/28 02:54:14;;;;;;;7.65;4.75;;;;;;;8.87;100.00;93346.78;2112693;28;20023;-81
2022/05/28 02:55:16;;;;;;;5.22;4.72;;;;;;;8.77;100.00;93344.97;2104254;28;20024;-81
2022/05/28 02:56:18;;;;;;;6.40;4.85;;;;;;;8.72;100.00;93340.84;2096170;28;20084;-81
2022/05/28 02:57:19;;;;;;;5.50;4.63;;;;;;;8.70;100.00;93343.16;2096255;28;20537;-82
2022/05/28 02:58:20;;;;;;;7.65;5.40;;;;;;;8.66;100.00;93337.09;2104547;28;20103;-81
2022/05/28 02:59:21;;;;;;;4.78;4.28;;;;;;;8.64;100.00;93344.72;2111487;28;20393;-81
2022/05/28 03:00:22;;;;;;;6.00;4.63;;;;;;;8.56;100.00;93344.06;2104350;28;20521;-81
2022/05/28 03:01:32;;;;;;;5.53;4.68;;;;;;;8.52;100.00;93339.94;2104334;28;20024;-82
2022/05/28 03:02:33;;;;;;;6.00;4.95;;;;;;;8.46;100.00;93338.84;2110139;28;20012;-81
2022/05/28 03:03:34;;;;;;;7.45;4.53;;;;;;;8.44;100.00;93341.16;2112605;28;20111;-81
2022/05/28 03:04:35;;;;;;;7.28;4.80;;;;;;;8.56;100.00;93338.00;2104253;28;20396;-82
2022/05/28 03:05:36;;;;;;;9.15;5.03;;;;;;;8.64;100.00;93343.97;2112332;28;20439;-82
2022/05/28 03:06:37;;;;;;;9.13;4.88;;;;;;;8.64;100.00;93344.72;2104443;28;20074;-82
2022/05/28 03:07:38;;;;;;;8.35;4.85;;;;;;;8.67;100.00;93338.63;2095987;28;20033;-81
2022/05/28 03:08:40;;;;;;;6.07;5.13;;;;;;;8.68;100.00;93340.13;2112723;28;20488;-83
2022/05/28 03:09:41;;;;;;;8.90;4.88;;;;;;;8.66;100.00;93350.44;2118408;27;20068;-81
2022/05/28 03:10:42;;;;;;;5.80;5.10;;;;;;;8.71;100.00;93342.00;2120959;28;20405;-82
2022/05/28 03:11:43;;;;;;;5.97;4.75;;;;;;;8.71;100.00;93342.00;2112675;28;20047;-82
2022/05/28 03:12:44;;;;;;;8.35;4.95;;;;;;;8.69;100.00;93340.88;2120706;27;20027;-82
2022/05/28 03:13:46;;;;;;;5.57;4.35;;;;;;;8.65;100.00;93342.81;2121041;28;20031;-82
2022/05/28 03:14:47;;;;;;;5.43;4.93;;;;;;;8.69;100.00;93348.88;2120968;28;20476;-81
2022/05/28 03:15:48;;;;;;;5.40;4.63;;;;;;;8.70;100.00;93353.06;2104171;28;20021;-82
2022/05/28 03:16:49;;;;;;;6.63;5.25;;;;;;;8.83;100.00;93354.81;2104114;28;20028;-81
2022/05/28 03:17:50;;;;;;;5.20;4.68;;;;;;;8.83;100.00;93349.47;2112686;27;20016;-81
2022/05/28 03:18:51;;;;;;;7.28;5.03;;;;;;;8.78;100.00;93349.91;2120961;28;20087;-82
2022/05/28 03:19:53;;;;;;;6.45;5.15;;;;;;;8.88;100.00;93348.28;2112676;28;20495;-82
2022/05/28 03:20:54;;;;;;;7.57;5.18;;;;;;;8.93;100.00;93350.50;2104241;28;20020;-81
2022/05/28 03:21:55;;;;;;;7.85;5.50;;;;;;;8.88;100.00;93347.53;2104132;28;20186;-82
2022/05/28 03:22:57;;;;;;;7.95;5.40;;;;;;;8.87;100.00;93348.66;2112541;28;20024;-81
2022/05/28 03:23:58;;;;;;;6.30;5.55;;;;;;;8.93;100.00;93350.50;2112493;28;20027;-81
2022/05/28 03:24:59;;;;;;;7.10;5.68;;;;;;;9.25;100.00;93354.69;2114699;28;20024;-81
2022/05/28 03:26:15;;;;;;;7.10;5.82;;;;;;;9.14;100.00;93354.06;2106746;28;20049;-81
2022/05/28 03:27:16;;;;;;;8.30;5.53;;;;;;;9.15;100.00;93353.66;2119738;27;20061;-81
2022/05/28 03:28:17;;;;;;;7.78;5.30;;;;;;;9.11;100.00;93358.28;2123778;27;20068;-81
2022/05/28 03:29:18;;;;;;;8.77;5.53;;;;;;;9.07;100.00;93358.31;2115240;28;20035;-81
2022/05/28 03:30:19;;;;;;;7.72;4.82;;;;;;;9.06;100.00;93356.81;2106877;28;20031;-81
2022/05/28 03:31:20;;;;;;;6.88;5.85;;;;;;;9.17;100.00;93347.94;2106795;28;20115;-81
2022/05/28 03:32:21;;;;;;;7.82;5.40;;;;;;;9.14;100.00;93354.06;2115330;28;20074;-81
2022/05/28 03:33:22;;;;;;;5.97;5.45;;;;;;;9.10;100.00;93350.69;2106615;28;20423;-81
2022/05/28 03:34:24;;;;;;;10.40;5.85;;;;;;;9.25;100.00;93350.09;2098502;28;20079;-81
2022/05/28 03:35:25;;;;;;;9.27;6.00;;;;;;;9.34;100.00;93357.59;2107129;28;20028;-82
2022/05/28 03:36:27;;;;;;;6.65;5.53;;;;;;;9.27;100.00;93352.38;2115095;28;20468;-82
2022/05/28 03:37:30;;;;;;;8.00;5.53;;;;;;;9.25;100.00;93344.78;2115265;28;20031;-81
2022/05/28 03:38:33;;;;;;;8.88;5.65;;;;;;;9.26;100.00;93353.53;2107024;28;20016;-82
2022/05/28 03:39:34;;;;;;;6.18;5.32;;;;;;;9.20;100.00;93353.22;2107174;28;20019;-82
2022/05/28 03:40:35;;;;;;;10.10;6.00;;;;;;;9.15;100.00;93351.00;2115130;28;20062;-81
2022/05/28 03:41:36;;;;;;;9.90;5.82;;;;;;;9.12;100.00;93346.47;2106727;28;20032;-81
2022/05/28 03:42:37;;;;;;;8.63;5.70;;;;;;;9.03;100.00;93348.88;2106748;28;20020;-82
2022/05/28 03:43:39;;;;;;;9.73;5.30;;;;;;;9.10;100.00;93358.69;2106729;28;20111;-82
2022/05/28 03:44:40;;;;;;;12.02;5.90;;;;;;;9.04;100.00;93353.03;2098660;28;20027;-81
2022/05/28 03:45:41;;;;;;;8.68;5.93;;;;;;;8.99;100.00;93350.81;2098177;28;20029;-82
2022/05/28 03:46:43;;;;;;;9.70;5.85;;;;;;;8.91;100.00;93358.16;2098497;28;20028;-81
2022/05/28 03:47:44;;;;;;;9.07;6.20;;;;;;;8.94;100.00;93356.59;2100473;28;20020;-81
2022/05/28 03:48:45;;;;;;;12.13;5.65;;;;;;;8.90;100.00;93356.63;2115127;28;20388;-81
2022/05/28 03:49:47;;;;;;;8.80;5.90;;;;;;;9.00;100.00;93353.09;2106819;28;20028;-81
2022/05/28 03:50:48;;;;;;;8.52;6.10;;;;;;;8.99;100.00;93361.47;2115019;28;20027;-82
2022/05/28 03:51:49;;;;;;;7.75;5.57;;;;;;;8.92;100.00;93362.34;2098254;28;20051;-81
2022/05/28 03:52:50;;;;;;;9.82;6.15;;;;;;;8.89;100.00;93357.03;2090174;28;20029;-82
2022/05/28 03:53:52;;;;;;;7.50;5.93;;;;;;;8.87;100.00;93364.66;2098326;28;20528;-81
2022/05/28 03:54:53;;;;;;;6.65;5.53;;;;;;;8.88;100.00;93366.19;2106787;28;20472;-82
2022/05/28 03:55:54;;;;;;;6.72;5.90;;;;;;;8.82;100.00;93368.50;2106462;28;20104;-81
2022/05/28 03:57:01;;;;;;;9.27;5.90;;;;;;;8.86;100.00;93366.56;2114691;27;20732;-81
2022/05/28 03:58:02;;;;;;;9.32;6.10;;;;;;;8.98;100.00;93368.72;2115182;28;20097;-82
2022/05/28 03:59:04;;;;;;;8.57;6.32;;;;;;;8.98;100.00;93374.06;2115419;27;20020;-81
2022/05/28 04:00:06;;;;;;;12.10;6.18;;;;;;;9.02;100.00;93364.09;2115215;28;20031;-81
2022/05/28 04:01:07;;;;;;;7.63;5.97;;;;;;;9.15;100.00;93364.34;2106368;28;20506;-81
2022/05/28 04:02:09;;;;;;;9.13;5.90;;;;;;;9.38;100.00;93363.66;2106713;28;20498;-81
2022/05/28 04:03:10;;;;;;;7.95;6.13;;;;;;;9.51;100.00;93369.97;2106592;28;20016;-82
2022/05/28 04:04:11;;;;;;;7.40;6.70;;;;;;;9.53;100.00;93367.66;2115004;28;20047;-81
2022/05/28 04:05:13;;;;;;;7.95;6.43;;;;;;;9.37;100.00;93372.06;2106648;28;20697;-82
2022/05/28 04:06:14;;;;;;;6.93;5.95;;;;;;;9.26;100.00;93362.31;2106510;28;20031;-81
2022/05/28 04:07:17;;;;;;;8.05;6.32;;;;;;;9.26;100.00;93372.19;2098305;28;20028;-82
2022/05/28 04:08:19;;;;;;;7.95;6.22;;;;;;;9.23;100.00;93376.44;2107132;27;20750;-81
2022/05/28 04:09:20;;;;;;;7.32;5.90;;;;;;;9.17;100.00;93374.59;2106702;28;20027;-82
2022/05/28 04:10:22;;;;;;;6.85;5.90;;;;;;;9.17;100.00;93372.69;2098538;28;20794;-81
2022/05/28 04:11:23;;;;;;;10.23;6.05;;;;;;;9.22;100.00;93382.16;2106566;28;20054;-82
2022/05/28 04:12:24;;;;;;;9.50;5.45;;;;;;;9.20;100.00;93377.22;2106532;28;20122;-81
2022/05/28 04:13:25;;;;;;;13.20;5.35;;;;;;;9.24;100.00;93382.53;2097957;28;20047;-81
2022/05/28 04:14:26;;;;;;;6.88;4.43;;;;;;;9.20;100.00;93379.88;2106546;28;20107;-81
2022/05/28 04:15:28;;;;;;;8.05;4.57;;;;;;;9.18;100.00;93392.88;2106492;28;20024;-81
2022/05/28 04:16:29;;;;;;;11.13;4.50;;;;;;;9.15;100.00;93391.00;2098065;28;20058;-82
2022/05/28 04:17:31;;;;;;;6.82;3.97;;;;;;;9.28;100.00;93394.66;2098044;28;20155;-82
2022/05/28 04:18:32;;;;;;;13.35;4.82;;;;;;;9.21;100.00;93391.31;2106607;28;20086;-82
2022/05/28 04:19:33;;;;;;;10.55;4.45;;;;;;;9.23;100.00;93384.44;2106522;28;20101;-82
2022/05/28 04:20:34;;;;;;;11.30;3.92;;;;;;;9.20;100.00;93381.81;2097961;28;20016;-81
2022/05/28 04:21:36;;;;;;;11.77;4.75;;;;;;;9.27;100.00;93382.47;2106565;28;20024;-82
2022/05/28 04:22:37;;;;;;;10.13;4.25;;;;;;;9.22;100.00;93388.25;2106404;28;20052;-81
2022/05/28 04:23:38;;;;;;;12.50;3.92;;;;;;;9.13;100.00;93387.22;2106496;28;20028;-82
2022/05/28 04:24:39;;;;;;;11.68;4.63;;;;;;;9.06;100.00;93380.81;2106506;28;20067;-82
2022/05/28 04:25:41;;;;;;;8.02;4.20;;;;;;;9.07;100.00;93381.56;2097869;28;20119;-81
2022/05/28 04:26:42;;;;;;;16.38;4.47;;;;;;;9.01;100.00;93394.59;2098152;28;20115;-82
2022/05/28 04:27:45;;;;;;;9.60;4.68;;;;;;;9.30;100.00;93394.25;2100497;28;20119;-81
2022/05/28 04:28:46;;;;;;;9.75;4.40;;;;;;;9.14;100.00;93397.50;2097952;28;20020;-82
2022/05/28 04:29:47;;;;;;;10.75;4.45;;;;;;;9.01;100.00;93399.94;2100370;28;20070;-81
2022/05/28 04:30:48;;;;;;;14.48;4.43;;;;;;;8.93;100.00;93401.16;2106240;28;20069;-82
2022/05/28 04:31:49;;;;;;;12.68;4.40;;;;;;;8.90;100.00;93391.28;2099208;28;20629;-82
2022/05/28 04:32:50;;;;;;;8.05;3.65;;;;;;;9.03;100.00;93396.84;2099600;28;20493;-81
2022/05/28 04:33:51;;;;;;;11.75;4.68;;;;;;;9.04;100.00;93390.34;2106168;28;20095;-82
2022/05/28 04:34:52;;;;;;;8.68;4.25;;;;;;;9.11;100.00;93408.97;2118828;27;20088;-81
2022/05/28 04:35:53;;;;;;;11.05;4.07;;;;;;;9.02;100.00;93403.34;2104852;28;20449;-81
2022/05/28 04:36:55;;;;;;;11.07;4.22;;;;;;;9.02;100.00;93396.09;2113152;28;20034;-83
2022/05/28 04:37:56;;;;;;;11.32;4.38;;;;;;;9.06;100.00;93393.41;2114438;27;20066;-81
2022/05/28 04:38:57;;;;;;;17.42;4.57;;;;;;;8.94;100.00;93396.56;2113678;28;20031;-81
2022/05/28 04:39:58;;;;;;;9.75;4.03;;;;;;;9.17;100.00;93385.25;2105993;28;20024;-81
2022/05/28 04:40:59;;;;;;;10.65;4.25;;;;;;;9.16;100.00;93387.19;2122441;27;20030;-81
2022/05/28 04:42:00;;;;;;;14.57;4.80;;;;;;;9.26;100.00;93385.53;2113963;28;20369;-81
2022/05/28 04:43:01;;;;;;;15.10;4.38;;;;;;;9.13;100.00;93392.53;2114202;28;20656;-82
2022/05/28 04:44:03;;;;;;;9.50;4.45;;;;;;;9.22;100.00;93398.16;2114863;28;20023;-82
2022/05/28 04:45:04;;;;;;;7.72;4.10;;;;;;;9.30;100.00;93392.31;2114635;28;20028;-81
2022/05/28 04:46:06;;;;;;;11.30;4.13;;;;;;;9.19;100.00;93386.38;2106298;27;20031;-82
2022/05/28 04:47:07;;;;;;;10.77;3.97;;;;;;;9.22;100.00;93392.81;2106513;28;20020;-82
2022/05/28 04:48:09;;;;;;;12.43;4.65;;;;;;;9.14;100.00;93400.16;2114615;28;20467;-81
2022/05/28 04:49:10;;;;;;;13.02;4.57;;;;;;;9.03;100.00;93400.28;2114607;27;20030;-81
2022/05/28 04:50:11;;;;;;;12.05;4.43;;;;;;;9.01;100.00;93394.59;2100266;28;20016;-81
2022/05/28 04:51:12;;;;;;;13.43;4.22;;;;;;;9.05;100.00;93394.56;2097971;28;20028;-81
2022/05/28 04:52:13;;;;;;;9.82;4.18;;;;;;;9.04;100.00;93399.13;2108084;28;20107;-82
2022/05/28 04:53:14;;;;;;;9.45;4.10;;;;;;;9.23;100.00;93395.09;2106040;28;20149;-82
2022/05/28 04:54:15;;;;;;;10.02;3.63;;;;;;;9.29;100.00;93398.06;2108100;28;20035;-81
2022/05/28 04:55:16;;;;;;;11.60;3.92;;;;;;;9.23;100.00;93399.69;2106108;28;20024;-80
2022/05/28 04:56:17;;;;;;;14.35;4.35;;;;;;;9.28;100.00;93401.91;2106184;28;20039;-81
2022/05/28 04:57:19;;;;;;;17.02;4.10;;;;;;;9.64;100.00;93399.53;2106286;28;20027;-82
2022/05/28 04:58:20;;;;;;;9.82;3.50;;;;;;;9.61;100.00;93407.56;2106002;28;20020;-81
2022/05/28 04:59:21;;;;;;;8.65;3.88;;;;;;;9.66;100.00;93404.44;2097891;28;20112;-82
2022/05/28 05:00:30;;;;;;;10.65;4.95;;;;;;;9.49;100.00;93406.22;2106095;28;20107;-82
2022/05/28 05:01:32;;;;;;;10.18;4.10;;;;;;;9.47;100.00;93401.28;2107048;28;20155;-82
2022/05/28 05:02:33;;;;;;;9.90;3.88;;;;;;;9.44;100.00;93402.09;2106073;28;20034;-81